Carmen, Idaho
Current Conditions -  °F | °C
As of 10:35 AM on Monday 24 Nov 2014 (Local Time) from KSMN Reporting Station
Broken Clouds Broken Clouds  
Wind Chill: -3°   Ceiling: 5500
Heat Index: -3°   Visibility: 8mi
Dew Point: -5°   Wind: 3mph
Humidity: 86%   Direction: 290°WNW
Pressure: 30.33"   Gusts: NA
Location:  45.24°N, 113.89°W
Report Text: KSMN 241735Z AUTO 29003KT 8SM BKN055 M03/M05 A3033 RMK AO1
Loading
Personal Weather Stations






























Interactive Weather Map New forecast layout! Learn more

10-Day Weather Forecast

Advertisements
Track Severe Weather on mobile